Time;durP1;ratioP1;P1;durP2;ratioP2;P2;SDS_P1;SDS_P2;PMS_P1;PMS_P2;Temp;Humidity;BMP_temperature;BMP_pressure;BME280_temperature;BME280_humidity;BME280_pressure;Samples;Min_cycle;Max_cycle;Signal;HPM_P1;HPM_P2
2021/11/25 00:02:02;;;;;;;16.97;10.17;;;;;;;5.22;100.00;100816.78;4981422;28;20460;-83
2021/11/25 00:04:29;;;;;;;19.47;10.27;;;;;;;5.20;100.00;100810.63;4930869;28;20043;-85
2021/11/25 00:06:58;;;;;;;15.87;9.27;;;;;;;5.22;100.00;100806.31;4928513;28;20051;-85
2021/11/25 00:09:28;;;;;;;16.47;9.63;;;;;;;5.22;100.00;100801.94;4920318;28;20066;-84
2021/11/25 00:11:55;;;;;;;20.63;10.33;;;;;;;5.22;100.00;100787.97;4963013;28;20070;-86
2021/11/25 00:14:22;;;;;;;20.33;11.40;;;;;;;5.21;100.00;100783.56;4913031;28;20046;-84
2021/11/25 00:16:49;;;;;;;18.23;10.33;;;;;;;5.19;100.00;100788.81;4924722;29;20047;-85
2021/11/25 00:19:18;;;;;;;21.73;11.00;;;;;;;5.22;100.00;100787.97;4913944;28;20047;-85
2021/11/25 00:21:45;;;;;;;21.70;11.20;;;;;;;5.18;100.00;100781.84;4916491;29;20039;-84
2021/11/25 00:24:11;;;;;;;23.20;12.67;;;;;;;5.24;100.00;100778.38;4946014;28;20532;-84
2021/11/25 00:26:40;;;;;;;24.83;11.87;;;;;;;5.20;100.00;100781.84;4949350;28;20152;-84
2021/11/25 00:29:08;;;;;;;23.60;11.63;;;;;;;5.19;100.00;100782.72;4934105;28;20455;-85
2021/11/25 00:31:35;;;;;;;22.83;12.90;;;;;;;5.19;100.00;100778.34;4935622;28;20051;-84
2021/11/25 00:34:02;;;;;;;23.03;11.67;;;;;;;5.20;100.00;100781.84;4918611;29;20500;-83
2021/11/25 00:36:28;;;;;;;20.97;11.33;;;;;;;5.19;100.00;100775.72;4935197;28;20047;-85
2021/11/25 00:39:02;;;;;;;23.80;13.53;;;;;;;5.20;100.00;100772.22;4933134;29;20047;-84
2021/11/25 00:41:28;;;;;;;27.53;14.03;;;;;;;5.19;100.00;100760.00;4933876;28;20163;-84
2021/11/25 00:43:55;;;;;;;29.23;13.90;;;;;;;5.21;100.00;100767.88;4919662;28;20550;-84
2021/11/25 00:46:22;;;;;;;25.97;13.37;;;;;;;5.18;100.00;100765.25;4921015;28;20055;-84
2021/11/25 00:48:48;;;;;;;27.07;13.30;;;;;;;5.19;100.00;100756.50;4905902;28;20047;-84
2021/11/25 00:51:15;;;;;;;26.77;13.93;;;;;;;5.18;100.00;100754.78;4950044;28;20039;-85
2021/11/25 00:53:44;;;;;;;27.10;13.17;;;;;;;5.18;100.00;100753.03;4929591;28;20086;-84
2021/11/25 00:56:12;;;;;;;26.63;14.03;;;;;;;5.18;100.00;100753.03;4917365;28;20512;-84
2021/11/25 00:58:40;;;;;;;21.60;12.77;;;;;;;5.18;100.00;100745.16;4933484;28;20055;-84
2021/11/25 01:01:08;;;;;;;29.77;15.23;;;;;;;5.19;100.00;100743.41;4934706;29;20047;-84
2021/11/25 01:03:35;;;;;;;27.83;15.33;;;;;;;5.17;100.00;100750.41;4917092;28;20051;-84
2021/11/25 01:06:02;;;;;;;31.07;14.90;;;;;;;5.17;100.00;100737.31;4935406;28;20495;-84
2021/11/25 01:08:29;;;;;;;28.87;13.87;;;;;;;5.20;100.00;100729.44;4917142;28;20051;-84
2021/11/25 01:10:56;;;;;;;29.13;13.40;;;;;;;5.17;100.00;100730.31;4923538;29;20044;-84
2021/11/25 01:13:22;;;;;;;26.07;14.30;;;;;;;5.16;100.00;100722.47;4928554;28;20516;-85
2021/11/25 01:15:49;;;;;;;25.47;13.87;;;;;;;5.15;100.00;100718.97;4903088;29;20053;-84
2021/11/25 01:18:17;;;;;;;28.60;14.97;;;;;;;5.16;100.00;100722.47;4902289;28;20047;-85
2021/11/25 01:20:45;;;;;;;21.90;13.63;;;;;;;5.15;100.00;100713.75;4915376;28;20109;-84
2021/11/25 01:23:15;;;;;;;29.17;15.63;;;;;;;5.15;100.00;100708.50;4918102;28;20055;-84
2021/11/25 01:25:42;;;;;;;32.90;15.00;;;;;;;5.18;100.00;100703.25;4918516;29;20042;-84
2021/11/25 01:28:12;;;;;;;23.87;13.73;;;;;;;5.13;100.00;100704.13;4984506;28;20047;-84
2021/11/25 01:30:41;;;;;;;27.13;13.83;;;;;;;5.12;100.00;100700.63;4933888;29;20146;-84
2021/11/25 01:33:08;;;;;;;31.30;14.50;;;;;;;5.12;100.00;100697.13;4934737;28;20047;-84
2021/11/25 01:35:35;;;;;;;28.17;14.73;;;;;;;5.12;100.00;100698.00;4920192;28;20047;-86
2021/11/25 01:38:03;;;;;;;31.50;14.97;;;;;;;5.11;100.00;100698.00;4918599;28;20097;-84
2021/11/25 01:40:30;;;;;;;26.90;13.67;;;;;;;5.12;100.00;100698.00;4917620;28;20051;-84
2021/11/25 01:42:57;;;;;;;32.83;15.60;;;;;;;5.13;100.00;100684.06;4918879;28;20042;-84
2021/11/25 01:45:24;;;;;;;29.57;14.73;;;;;;;5.09;100.00;100683.16;5016044;28;20051;-85
2021/11/25 01:47:52;;;;;;;27.77;14.67;;;;;;;5.11;100.00;100675.31;4934646;29;20093;-85
2021/11/25 01:50:22;;;;;;;27.63;15.60;;;;;;;5.12;100.00;100676.19;4916939;28;20047;-85
2021/11/25 01:52:48;;;;;;;29.27;14.83;;;;;;;5.09;100.00;100675.31;4903010;28;20727;-84
2021/11/25 01:55:18;;;;;;;26.30;14.63;;;;;;;5.08;100.00;100676.19;4917335;28;20065;-84
2021/11/25 01:57:47;;;;;;;28.43;14.93;;;;;;;5.08;100.00;100673.56;4933509;28;20514;-85
2021/11/25 02:00:17;;;;;;;29.57;15.83;;;;;;;5.10;100.00;100668.31;4948298;28;20443;-84
2021/11/25 02:02:46;;;;;;;30.03;14.80;;;;;;;5.07;100.00;100666.59;5089657;23;20054;-84
2021/11/25 02:05:12;;;;;;;32.43;15.17;;;;;;;5.07;100.00;100666.59;5035849;28;20045;-84
2021/11/25 02:07:39;;;;;;;29.30;14.73;;;;;;;5.05;100.00;100659.59;4996395;28;20045;-84
2021/11/25 02:10:07;;;;;;;25.27;13.73;;;;;;;5.05;100.00;100657.88;4948924;28;20047;-84
2021/11/25 02:12:37;;;;;;;31.70;15.53;;;;;;;5.05;100.00;100644.78;4936522;28;20043;-83
2021/11/25 02:15:04;;;;;;;27.20;15.13;;;;;;;5.04;100.00;100639.50;4948684;28;20043;-85
2021/11/25 02:17:31;;;;;;;28.90;14.37;;;;;;;5.05;100.00;100644.78;4903525;28;20043;-86
2021/11/25 02:19:58;;;;;;;29.63;15.40;;;;;;;5.03;100.00;100630.78;4991976;28;20098;-85
2021/11/25 02:22:25;;;;;;;28.03;14.10;;;;;;;5.03;100.00;100637.75;4934496;28;20114;-84
2021/11/25 02:24:52;;;;;;;24.97;14.90;;;;;;;5.04;100.00;100622.06;4998385;28;20067;-85
2021/11/25 02:27:19;;;;;;;27.90;15.03;;;;;;;5.04;100.00;100626.41;4983672;28;20050;-84
2021/11/25 02:29:47;;;;;;;24.43;14.13;;;;;;;5.00;100.00;100622.94;5025269;28;20050;-85
2021/11/25 02:32:30;;;;;;;28.07;13.27;;;;;;;4.98;100.00;100611.59;4910130;28;20035;-85
2021/11/25 02:34:57;;;;;;;27.00;13.03;;;;;;;4.98;100.00;100616.81;5014540;28;20043;-85
2021/11/25 02:37:24;;;;;;;32.83;15.03;;;;;;;4.97;100.00;100608.97;4968720;28;20047;-85
2021/11/25 02:39:51;;;;;;;24.70;13.03;;;;;;;4.99;100.00;100601.97;5012236;28;20392;-84
2021/11/25 02:42:18;;;;;;;25.37;14.53;;;;;;;4.99;100.00;100595.00;4976479;28;20101;-85
2021/11/25 02:44:45;;;;;;;26.73;13.70;;;;;;;4.97;100.00;100586.28;5041922;28;20175;-84
2021/11/25 02:47:11;;;;;;;23.93;12.87;;;;;;;4.96;100.00;100581.00;5016897;28;20074;-84
2021/11/25 02:49:39;;;;;;;27.93;13.90;;;;;;;4.95;100.00;100585.38;4916512;28;20047;-86
2021/11/25 02:52:07;;;;;;;27.20;13.13;;;;;;;4.94;100.00;100580.16;4999865;28;20047;-84
2021/11/25 02:54:42;;;;;;;24.60;12.57;;;;;;;4.94;100.00;100569.69;4999066;28;20053;-84
2021/11/25 02:57:08;;;;;;;24.25;13.18;;;;;;;4.92;100.00;100574.03;4996751;28;20047;-86
2021/11/25 02:59:35;;;;;;;25.23;12.07;;;;;;;4.91;100.00;100574.91;4995295;28;20055;-83
2021/11/25 03:02:01;;;;;;;22.47;11.90;;;;;;;4.89;100.00;100574.94;5000193;28;20532;-84
2021/11/25 03:04:28;;;;;;;21.93;12.23;;;;;;;4.86;100.00;100572.28;4966712;28;20540;-83
2021/11/25 03:06:55;;;;;;;25.20;13.03;;;;;;;4.87;100.00;100568.78;4963080;28;20035;-83
2021/11/25 03:09:22;;;;;;;23.33;12.33;;;;;;;4.87;100.00;100563.56;4991922;28;20057;-84
2021/11/25 03:11:53;;;;;;;22.90;12.07;;;;;;;4.88;100.00;100564.47;5019049;28;20050;-84
2021/11/25 03:14:20;;;;;;;22.27;12.40;;;;;;;4.87;100.00;100567.91;4915963;28;20047;-84
2021/11/25 03:16:47;;;;;;;23.23;11.57;;;;;;;4.85;100.00;100554.84;4955445;28;20130;-84
2021/11/25 03:19:13;;;;;;;21.37;11.33;;;;;;;4.84;100.00;100558.34;4992908;28;20053;-84
2021/11/25 03:21:40;;;;;;;23.13;12.37;;;;;;;4.89;100.00;100555.72;4925265;28;20149;-84
2021/11/25 03:24:07;;;;;;;23.50;13.03;;;;;;;4.84;100.00;100547.00;4901021;28;20532;-84
2021/11/25 03:26:34;;;;;;;20.67;10.77;;;;;;;4.80;100.00;100551.38;4962685;28;20110;-84
2021/11/25 03:29:02;;;;;;;20.53;11.87;;;;;;;4.79;100.00;100547.88;4932063;28;20055;-84
2021/11/25 03:31:31;;;;;;;25.90;12.00;;;;;;;4.78;100.00;100550.47;4932296;28;20043;-86
2021/11/25 03:33:59;;;;;;;18.67;10.77;;;;;;;4.78;100.00;100546.09;4947031;28;20054;-86
2021/11/25 03:36:26;;;;;;;20.50;10.83;;;;;;;4.79;100.00;100546.97;4964183;28;20043;-85
2021/11/25 03:38:54;;;;;;;20.37;11.03;;;;;;;4.78;100.00;100540.00;5024953;28;20051;-84
2021/11/25 03:41:22;;;;;;;22.73;11.20;;;;;;;4.74;100.00;100538.25;4942017;28;20043;-84
2021/11/25 03:43:49;;;;;;;18.27;10.50;;;;;;;4.72;100.00;100529.53;4997077;28;20043;-84
2021/11/25 03:46:16;;;;;;;20.87;10.90;;;;;;;4.71;100.00;100527.81;4894735;28;20090;-85
2021/11/25 03:48:43;;;;;;;20.43;10.17;;;;;;;4.70;100.00;100523.41;4946744;28;20081;-83
2021/11/25 03:51:11;;;;;;;21.10;10.73;;;;;;;4.73;100.00;100515.59;4901712;28;20067;-87
2021/11/25 03:53:43;;;;;;;18.30;10.50;;;;;;;4.68;100.00;100506.84;4947386;28;20058;-84
2021/11/25 03:56:12;;;;;;;21.07;10.77;;;;;;;4.67;100.00;100510.34;5015653;28;20185;-84
2021/11/25 03:58:39;;;;;;;19.10;10.40;;;;;;;4.67;100.00;100502.47;5032757;28;20127;-84
2021/11/25 04:01:06;;;;;;;20.53;11.27;;;;;;;4.66;100.00;100503.34;5037949;28;20048;-84
2021/11/25 04:03:33;;;;;;;25.87;11.10;;;;;;;4.66;100.00;100506.84;5051689;28;20570;-84
2021/11/25 04:06:00;;;;;;;20.70;10.57;;;;;;;4.63;100.00;100500.75;5040853;28;20497;-84
2021/11/25 04:08:27;;;;;;;20.30;11.20;;;;;;;4.66;100.00;100503.34;5009307;28;20409;-84
2021/11/25 04:10:55;;;;;;;20.73;10.27;;;;;;;4.70;100.00;100497.25;5000772;28;20049;-84
2021/11/25 04:13:22;;;;;;;18.90;10.50;;;;;;;4.68;100.00;100497.25;5029708;28;20056;-85
2021/11/25 04:15:49;;;;;;;19.90;11.07;;;;;;;4.65;100.00;100496.38;5003881;28;20037;-87
2021/11/25 04:18:15;;;;;;;18.17;9.47;;;;;;;4.62;100.00;100489.38;5027447;28;20047;-84
2021/11/25 04:20:42;;;;;;;15.63;8.97;;;;;;;4.60;100.00;100483.28;4965320;28;20045;-84
2021/11/25 04:23:09;;;;;;;16.07;9.07;;;;;;;4.58;100.00;100478.94;5018238;28;20044;-85
2021/11/25 04:25:38;;;;;;;15.93;8.50;;;;;;;4.56;100.00;100473.69;4939627;28;20110;-85
2021/11/25 04:28:05;;;;;;;15.83;8.60;;;;;;;4.57;100.00;100474.56;5019515;28;20057;-85
2021/11/25 04:35:55;;;;;;;19.33;9.03;;;;;;;4.49;100.00;100461.47;5040405;28;20154;-84
2021/11/25 04:38:22;;;;;;;15.00;7.93;;;;;;;4.53;100.00;100451.00;5017611;28;20494;-86
2021/11/25 04:40:55;;;;;;;13.37;7.70;;;;;;;4.48;100.00;100447.53;5037633;28;20049;-83
2021/11/25 04:43:24;;;;;;;14.23;7.45;;;;;;;4.43;100.00;100453.63;5050791;28;20555;-85
2021/11/25 04:45:51;;;;;;;12.13;8.10;;;;;;;4.41;100.00;100443.16;5038686;28;20448;-84
2021/11/25 04:48:19;;;;;;;12.87;7.03;;;;;;;4.40;100.00;100437.94;5033998;28;20421;-84
2021/11/25 04:50:46;;;;;;;12.40;7.10;;;;;;;4.37;100.00;100433.59;5003656;28;20045;-84
2021/11/25 04:53:13;;;;;;;13.37;7.87;;;;;;;4.41;100.00;100423.97;5001833;28;20048;-84
2021/11/25 04:55:42;;;;;;;13.13;8.27;;;;;;;4.37;100.00;100423.13;5034343;28;20051;-84
2021/11/25 04:58:11;;;;;;;10.43;6.70;;;;;;;4.35;100.00;100423.97;5034548;28;20044;-86
2021/11/25 05:00:38;;;;;;;13.20;8.30;;;;;;;4.35;100.00;100418.72;5001971;28;20041;-84
2021/11/25 05:03:05;;;;;;;11.07;6.80;;;;;;;4.35;100.00;100408.28;5037731;28;20108;-84
2021/11/25 05:05:32;;;;;;;10.30;5.97;;;;;;;4.35;100.00;100403.91;4993304;28;20037;-84
2021/11/25 05:07:58;;;;;;;12.67;6.50;;;;;;;4.33;100.00;100408.28;5034743;28;20418;-84
2021/11/25 05:10:25;;;;;;;10.60;5.80;;;;;;;4.27;100.00;100402.16;4999940;28;20044;-84
2021/11/25 05:12:52;;;;;;;11.43;7.03;;;;;;;4.32;100.00;100408.28;5032809;28;20037;-83
2021/11/25 05:15:19;;;;;;;12.37;6.80;;;;;;;4.29;100.00;100413.50;5002644;28;20623;-84
2021/11/25 05:17:46;;;;;;;11.67;6.07;;;;;;;4.24;100.00;100413.50;5017851;28;20049;-84
2021/11/25 05:20:15;;;;;;;12.00;6.50;;;;;;;4.23;100.00;100411.75;5032112;28;20072;-85
2021/11/25 05:22:42;;;;;;;12.23;6.80;;;;;;;4.24;100.00;100411.75;5035748;28;20464;-84
2021/11/25 05:25:10;;;;;;;11.67;6.93;;;;;;;4.24;100.00;100413.50;5033592;28;20107;-86
2021/11/25 05:27:37;;;;;;;10.77;7.23;;;;;;;4.23;100.00;100414.38;5034546;28;20415;-87
2021/11/25 05:30:04;;;;;;;11.37;7.10;;;;;;;4.23;100.00;100417.84;5032448;28;20460;-84
2021/11/25 05:32:31;;;;;;;13.10;7.30;;;;;;;4.20;100.00;100412.63;5039106;28;20044;-84
2021/11/25 05:34:58;;;;;;;10.93;6.47;;;;;;;4.20;100.00;100406.50;5027921;28;20040;-84
2021/11/25 05:37:24;;;;;;;12.27;6.70;;;;;;;4.23;100.00;100403.91;5037251;28;20394;-83
2021/11/25 05:39:56;;;;;;;10.50;6.33;;;;;;;4.20;100.00;100412.63;5015526;28;20508;-84
2021/11/25 05:42:23;;;;;;;11.03;6.90;;;;;;;4.20;100.00;100407.41;5017898;28;20678;-84
2021/11/25 05:44:50;;;;;;;10.60;6.87;;;;;;;4.18;100.00;100401.28;5016546;28;20397;-85
2021/11/25 05:47:17;;;;;;;9.07;6.30;;;;;;;4.15;100.00;100403.03;5034581;28;20041;-85
2021/11/25 05:49:43;;;;;;;11.67;6.30;;;;;;;4.14;100.00;100399.53;5038261;28;20048;-84
2021/11/25 05:52:10;;;;;;;10.33;7.07;;;;;;;4.12;100.00;100395.16;5021409;28;20508;-83
2021/11/25 05:54:38;;;;;;;8.67;6.17;;;;;;;4.10;100.00;100387.31;5032024;28;20045;-84
2021/11/25 05:57:04;;;;;;;8.47;5.33;;;;;;;4.09;100.00;100388.19;5001312;28;20489;-85
2021/11/25 05:59:31;;;;;;;9.23;6.50;;;;;;;4.06;100.00;100384.72;5036920;28;20071;-84
2021/11/25 06:01:58;;;;;;;10.77;6.03;;;;;;;4.06;100.00;100384.72;5033684;28;20081;-85
2021/11/25 06:04:24;;;;;;;9.37;5.90;;;;;;;4.07;100.00;100381.22;5031935;28;20052;-84
2021/11/25 06:06:51;;;;;;;10.93;6.20;;;;;;;4.08;100.00;100385.59;5040310;28;20636;-84
2021/11/25 06:09:18;;;;;;;10.00;5.97;;;;;;;4.08;100.00;100378.63;5015351;28;20090;-86
2021/11/25 06:11:47;;;;;;;10.90;6.77;;;;;;;4.06;100.00;100377.75;5050597;28;20052;-85
2021/11/25 06:14:13;;;;;;;10.23;6.47;;;;;;;4.05;100.00;100383.84;5015870;28;20040;-84
2021/11/25 06:16:40;;;;;;;12.27;6.97;;;;;;;4.05;100.00;100377.75;5016557;28;20037;-85
2021/11/25 06:19:07;;;;;;;12.93;7.57;;;;;;;4.03;100.00;100377.72;5014752;28;20407;-85
2021/11/25 06:21:33;;;;;;;11.73;7.37;;;;;;;4.01;100.00;100375.97;5034150;28;20052;-84
2021/11/25 06:24:00;;;;;;;12.63;7.53;;;;;;;4.01;100.00;100370.75;5021812;28;20098;-86
2021/11/25 06:26:27;;;;;;;14.57;8.17;;;;;;;4.00;100.00;100369.03;5035754;28;20045;-84
2021/11/25 06:28:55;;;;;;;13.13;7.93;;;;;;;3.99;100.00;100364.66;5037420;28;20037;-84
2021/11/25 06:31:22;;;;;;;14.00;8.27;;;;;;;4.00;100.00;100358.56;5033772;28;20045;-84
2021/11/25 06:33:49;;;;;;;13.47;7.70;;;;;;;3.97;100.00;100364.66;5024666;28;20037;-85
2021/11/25 06:36:16;;;;;;;12.40;8.77;;;;;;;3.98;100.00;100363.78;5033615;28;20493;-85
2021/11/25 06:38:42;;;;;;;13.63;8.30;;;;;;;3.98;100.00;100366.41;5064321;28;20041;-85
2021/11/25 06:41:09;;;;;;;15.30;9.40;;;;;;;3.95;100.00;100362.06;5033710;28;20410;-84
2021/11/25 06:43:36;;;;;;;13.47;8.73;;;;;;;3.97;100.00;100354.22;5014548;28;20052;-85
2021/11/25 06:46:02;;;;;;;14.43;9.63;;;;;;;3.98;100.00;100355.09;5026222;28;20052;-85
2021/11/25 06:48:30;;;;;;;15.37;9.23;;;;;;;3.95;100.00;100351.59;5049006;28;20044;-86
2021/11/25 06:50:56;;;;;;;13.33;9.20;;;;;;;3.95;100.00;100349.00;5030003;28;20045;-86
2021/11/25 06:53:26;;;;;;;14.50;9.37;;;;;;;3.94;100.00;100349.84;5012734;28;20037;-86
2021/11/25 06:55:52;;;;;;;15.57;9.43;;;;;;;3.93;100.00;100336.75;5045312;28;20430;-85
2021/11/25 06:58:19;;;;;;;13.27;8.70;;;;;;;3.89;100.00;100338.53;5029691;28;20063;-85
2021/11/25 07:00:52;;;;;;;15.70;9.53;;;;;;;3.88;100.00;100331.56;5045713;28;20502;-82
2021/11/25 07:03:40;;;;;;;17.80;11.07;;;;;;;3.91;100.00;100338.50;5087763;28;20043;-83
2021/11/25 07:07:03;;;;;;;16.80;10.17;;;;;;;3.86;100.00;100327.16;5052382;28;20056;-83
2021/11/25 07:09:59;;;;;;;20.10;11.30;;;;;;;3.87;100.00;100323.72;5063903;28;20052;-82
2021/11/25 07:12:48;;;;;;;17.93;10.93;;;;;;;3.82;100.00;100328.06;5064352;28;20045;-82
2021/11/25 07:15:32;;;;;;;18.90;10.40;;;;;;;3.80;100.00;100322.81;5060555;28;20049;-82
2021/11/25 07:18:17;;;;;;;17.25;11.45;;;;;;;3.79;100.00;100326.31;5075828;28;20299;-82
2021/11/25 07:20:52;;;;;;;15.50;10.33;;;;;;;3.79;100.00;100328.94;5031355;28;20052;-85
2021/11/25 07:23:18;;;;;;;15.37;9.90;;;;;;;3.82;100.00;100317.59;5034515;28;20442;-82
2021/11/25 07:25:45;;;;;;;16.60;10.00;;;;;;;3.80;100.00;100309.75;5017394;28;20521;-83
2021/11/25 07:28:12;;;;;;;17.43;10.90;;;;;;;3.80;100.00;100306.28;5019044;28;20053;-85
2021/11/25 07:30:38;;;;;;;21.03;11.57;;;;;;;3.81;100.00;100302.78;5023139;28;20068;-84
2021/11/25 07:33:09;;;;;;;16.87;10.67;;;;;;;3.81;100.00;100300.19;5036334;28;20386;-80
2021/11/25 07:35:36;;;;;;;18.67;11.43;;;;;;;3.80;100.00;100291.47;5072204;28;20394;-82
2021/11/25 07:38:05;;;;;;;19.03;11.63;;;;;;;3.83;100.00;100286.25;5054007;28;20055;-84
2021/11/25 07:40:31;;;;;;;19.33;11.43;;;;;;;3.84;100.00;100289.72;5035793;28;20071;-83
2021/11/25 07:42:58;;;;;;;16.97;11.47;;;;;;;3.89;100.00;100282.78;5052777;28;20619;-83
2021/11/25 07:45:27;;;;;;;18.33;12.60;;;;;;;3.86;100.00;100278.38;5084961;28;20052;-84
2021/11/25 07:47:54;;;;;;;18.80;11.53;;;;;;;3.86;100.00;100261.84;5020865;28;20040;-84
2021/11/25 07:50:25;;;;;;;17.93;11.37;;;;;;;3.88;100.00;100275.81;5015643;28;20099;-82
2021/11/25 07:52:53;;;;;;;21.20;12.17;;;;;;;3.93;100.00;100274.03;5048104;28;20095;-84
2021/11/25 07:55:19;;;;;;;23.27;14.10;;;;;;;3.99;100.00;100271.44;5030786;28;20033;-83
2021/11/25 07:57:47;;;;;;;25.53;16.23;;;;;;;3.93;100.00;100271.44;5031806;28;20098;-82
2021/11/25 08:00:14;;;;;;;27.83;15.20;;;;;;;3.93;100.00;100274.91;5024630;28;20090;-85
2021/11/25 08:02:41;;;;;;;28.50;17.03;;;;;;;3.97;100.00;100270.56;5032731;28;20102;-84
2021/11/25 08:05:10;;;;;;;27.17;16.83;;;;;;;4.02;100.00;100267.94;4991762;28;20060;-83
2021/11/25 08:07:38;;;;;;;32.00;19.93;;;;;;;3.95;100.00;100262.75;5064319;28;20103;-81
2021/11/25 08:10:06;;;;;;;29.93;18.70;;;;;;;3.90;100.00;100264.47;5031483;28;20052;-82
2021/11/25 08:12:33;;;;;;;27.10;16.03;;;;;;;3.93;100.00;100258.38;5015230;28;20052;-83
2021/11/25 08:15:00;;;;;;;25.43;15.53;;;;;;;3.94;100.00;100254.88;5030450;28;20053;-84
2021/11/25 08:17:27;;;;;;;22.63;14.83;;;;;;;3.94;100.00;100250.50;5032486;28;20049;-84
2021/11/25 08:19:54;;;;;;;28.03;16.33;;;;;;;3.95;100.00;100252.28;5028997;28;20103;-83
2021/11/25 08:22:20;;;;;;;28.00;16.13;;;;;;;3.96;100.00;100250.53;5046799;28;20048;-82
2021/11/25 08:24:47;;;;;;;27.13;16.60;;;;;;;3.95;100.00;100254.91;5014207;28;20045;-84
2021/11/25 08:27:14;;;;;;;28.43;16.67;;;;;;;3.95;100.00;100243.53;5052355;23;20705;-86
2021/11/25 08:29:41;;;;;;;24.73;16.13;;;;;;;3.97;100.00;100238.34;5031901;28;20041;-84
2021/11/25 08:32:09;;;;;;;24.90;16.10;;;;;;;3.97;100.00;100231.38;5017819;28;20045;-85
2021/11/25 08:34:36;;;;;;;25.70;16.07;;;;;;;3.96;100.00;100227.03;5000710;28;20386;-86
2021/11/25 08:37:03;;;;;;;27.67;16.13;;;;;;;3.98;100.00;100233.13;5019062;28;20132;-84
2021/11/25 08:39:30;;;;;;;27.47;15.73;;;;;;;3.95;100.00;100236.59;5015560;28;20049;-84
2021/11/25 08:41:57;;;;;;;28.03;16.63;;;;;;;3.97;100.00;100234.00;5017006;28;20045;-85
2021/11/25 08:44:23;;;;;;;29.60;18.13;;;;;;;3.95;100.00;100236.59;4960529;28;20049;-84
2021/11/25 08:46:51;;;;;;;31.13;17.10;;;;;;;3.97;100.00;100235.72;4991029;28;20521;-87
2021/11/25 08:49:18;;;;;;;27.90;16.30;;;;;;;3.99;100.00;100236.59;4984863;28;20137;-83
2021/11/25 08:51:44;;;;;;;30.03;17.30;;;;;;;3.98;100.00;100240.09;4970205;28;20442;-85
2021/11/25 08:54:11;;;;;;;33.53;19.17;;;;;;;3.98;100.00;100237.47;5029402;28;20033;-84
2021/11/25 08:56:38;;;;;;;27.80;17.07;;;;;;;3.99;100.00;100242.69;5019093;28;20046;-83
2021/11/25 08:59:04;;;;;;;29.60;18.13;;;;;;;3.99;100.00;100239.22;4998846;28;20042;-85
2021/11/25 09:01:31;;;;;;;30.73;17.83;;;;;;;4.02;100.00;100242.69;5037929;28;20069;-84
2021/11/25 09:03:58;;;;;;;29.70;17.80;;;;;;;4.02;100.00;100239.19;5010106;28;20095;-84
2021/11/25 09:06:25;;;;;;;29.53;17.40;;;;;;;4.05;100.00;100237.47;5020022;28;20088;-84
2021/11/25 09:08:53;;;;;;;27.87;16.83;;;;;;;4.06;100.00;100236.59;5017674;28;20092;-84
2021/11/25 09:11:20;;;;;;;26.50;17.37;;;;;;;4.09;100.00;100226.13;5021092;28;20135;-84
2021/11/25 09:13:46;;;;;;;27.67;17.07;;;;;;;4.07;100.00;100220.03;4985191;28;20037;-84
2021/11/25 09:16:13;;;;;;;28.33;17.30;;;;;;;4.09;100.00;100217.41;5004562;28;20045;-86
2021/11/25 09:18:40;;;;;;;28.07;17.87;;;;;;;4.13;100.00;100222.66;4991101;28;20517;-83
2021/11/25 09:21:06;;;;;;;27.43;17.33;;;;;;;4.12;100.00;100213.06;5027098;28;20064;-84
2021/11/25 09:23:36;;;;;;;28.37;17.63;;;;;;;4.14;100.00;100199.97;5023190;28;20045;-84
2021/11/25 09:26:03;;;;;;;30.93;17.50;;;;;;;4.16;100.00;100198.22;5008876;28;20057;-83
2021/11/25 09:28:30;;;;;;;28.93;18.07;;;;;;;4.22;100.00;100200.84;5005001;28;20711;-84
2021/11/25 09:30:57;;;;;;;29.53;18.33;;;;;;;4.23;100.00;100193.00;5002376;28;20056;-84
2021/11/25 09:33:24;;;;;;;32.17;18.07;;;;;;;4.22;100.00;100206.94;4985242;28;21469;-84
2021/11/25 09:35:51;;;;;;;31.67;19.83;;;;;;;4.28;100.00;100194.72;5000269;28;20506;-84
2021/11/25 09:38:18;;;;;;;29.27;17.33;;;;;;;4.27;100.00;100192.97;5002794;28;20045;-85
2021/11/25 09:40:46;;;;;;;29.53;17.73;;;;;;;4.31;100.00;100195.59;5001730;28;20045;-84
2021/11/25 09:43:16;;;;;;;29.97;18.13;;;;;;;4.35;100.00;100184.22;5004361;28;20053;-84
2021/11/25 09:45:44;;;;;;;27.43;18.47;;;;;;;4.38;100.00;100183.38;5003774;28;20247;-84
2021/11/25 09:48:12;;;;;;;31.83;19.13;;;;;;;4.37;100.00;100182.50;5002653;28;20068;-84
2021/11/25 09:50:44;;;;;;;30.60;17.93;;;;;;;4.42;100.00;100175.50;5017640;28;20049;-84
2021/11/25 09:53:14;;;;;;;30.10;19.40;;;;;;;4.42;100.00;100177.25;5018569;28;20065;-84
2021/11/25 09:55:43;;;;;;;30.47;17.93;;;;;;;4.49;100.00;100169.38;4997000;28;20068;-84
2021/11/25 09:58:18;;;;;;;30.10;18.80;;;;;;;4.49;100.00;100161.53;5014475;28;20057;-84
2021/11/25 10:00:50;;;;;;;31.37;16.97;;;;;;;4.51;99.33;100158.91;5015844;28;20513;-84
2021/11/25 10:03:18;;;;;;;26.73;16.90;;;;;;;4.49;100.00;100158.03;4981137;28;20037;-85
2021/11/25 10:05:50;;;;;;;29.93;17.67;;;;;;;4.52;98.88;100140.56;5017052;28;20046;-86
2021/11/25 10:08:26;;;;;;;27.73;16.93;;;;;;;4.51;97.75;100146.69;4997655;28;20041;-84
2021/11/25 10:11:03;;;;;;;31.50;17.70;;;;;;;4.53;99.27;100144.94;5015212;28;20049;-84
2021/11/25 10:13:55;;;;;;;28.80;18.30;;;;;;;4.59;99.40;100137.94;4996457;28;20045;-85
2021/11/25 10:16:32;;;;;;;27.90;18.30;;;;;;;4.53;98.40;100126.63;4994841;28;20061;-84
2021/11/25 10:19:08;;;;;;;31.10;19.60;;;;;;;4.58;97.26;100130.97;5012824;28;20100;-85
2021/11/25 10:21:39;;;;;;;26.17;15.60;;;;;;;4.55;96.05;100124.03;4998391;28;20053;-86
2021/11/25 10:24:06;;;;;;;30.60;18.30;;;;;;;4.51;97.21;100128.38;5029964;28;20048;-85
2021/11/25 10:26:34;;;;;;;30.13;18.20;;;;;;;4.62;97.11;100133.53;5032926;28;20529;-84
2021/11/25 10:29:11;;;;;;;25.60;17.40;;;;;;;4.50;97.18;100126.63;4995210;28;20456;-82
2021/11/25 10:31:40;;;;;;;28.30;16.90;;;;;;;4.52;95.60;100127.50;5015328;28;20076;-84
2021/11/25 10:34:10;;;;;;;26.13;17.20;;;;;;;4.52;95.33;100113.53;4993167;28;20042;-84
2021/11/25 10:39:12;;;;;;;27.53;16.70;;;;;;;4.46;94.39;100118.81;5016801;28;20047;-84
2021/11/25 10:41:43;;;;;;;26.40;16.47;;;;;;;4.52;91.57;100114.41;4981397;28;20052;-84
2021/11/25 10:44:17;;;;;;;23.33;15.27;;;;;;;4.48;90.45;100117.06;4984931;28;20479;-84
2021/11/25 10:46:47;;;;;;;25.00;16.05;;;;;;;4.41;93.35;100112.75;4987970;28;20466;-86
2021/11/25 10:49:14;;;;;;;26.27;17.50;;;;;;;4.37;94.75;100103.16;4995950;28;20050;-85
2021/11/25 10:51:43;;;;;;;27.60;16.10;;;;;;;4.35;95.69;100104.91;4987278;28;20042;-85
2021/11/25 10:54:19;;;;;;;27.97;16.40;;;;;;;4.47;96.35;100103.13;4992510;28;20038;-84
2021/11/25 10:56:49;;;;;;;23.80;15.63;;;;;;;4.47;94.76;100110.09;5012894;28;20057;-85
2021/11/25 10:59:17;;;;;;;26.00;16.20;;;;;;;4.43;93.19;100106.63;4964993;28;20053;-85
2021/11/25 11:01:47;;;;;;;26.80;15.80;;;;;;;4.32;93.88;100105.81;4972404;28;20052;-85
2021/11/25 11:04:15;;;;;;;24.27;15.07;;;;;;;4.36;96.30;100096.19;5003231;28;20073;-85
2021/11/25 11:06:52;;;;;;;28.00;16.10;;;;;;;4.42;94.26;100093.53;5004323;28;20107;-86
2021/11/25 11:09:39;;;;;;;24.97;15.73;;;;;;;4.33;95.97;100101.44;4998442;28;20037;-85
2021/11/25 11:12:29;;;;;;;26.13;16.03;;;;;;;4.32;96.46;100090.09;4985290;28;20080;-84
2021/11/25 11:15:01;;;;;;;23.40;14.83;;;;;;;4.34;96.99;100085.72;5014039;28;20498;-84
2021/11/25 11:17:31;;;;;;;24.23;15.60;;;;;;;4.36;97.22;100083.97;5009676;28;20503;-85
2021/11/25 11:20:18;;;;;;;24.97;15.90;;;;;;;4.38;98.81;100082.25;5025294;28;20065;-84
2021/11/25 11:23:00;;;;;;;28.37;17.83;;;;;;;4.38;96.33;100084.84;5019309;28;20045;-87
2021/11/25 11:25:29;;;;;;;26.07;15.60;;;;;;;4.28;96.55;100085.75;4997311;28;20041;-85
2021/11/25 11:27:57;;;;;;;26.80;16.10;;;;;;;4.29;96.06;100079.69;5030756;28;20033;-85